Fife, Texas
Current Conditions -  °F | °C
As of 2:35 PM on Friday 21 Nov 2014 (Local Time) from KBBD Reporting Station
Few Clouds Few Clouds  
Wind Chill: 75°   Ceiling: Unl
Heat Index: 75°   Visibility: 10mi
Dew Point: 52°   Wind: 10mph
Humidity: 44%   Direction: 170°S
Pressure: 29.98"   Gusts: NA
Location:  31.063°N, 99.3372°W
Report Text: KBBD 212035Z AUTO 17009KT 10SM FEW047 24/11 A2998 RMK
Loading
Personal Weather Stations






























Interactive Weather Map New forecast layout! Learn more

10-Day Weather Forecast

Advertisements
Track Severe Weather on mobile